Time;durP1;ratioP1;P1;durP2;ratioP2;P2;SDS_P1;SDS_P2;PMS_P1;PMS_P2;Temp;Humidity;BMP_temperature;BMP_pressure;BME280_temperature;BME280_humidity;BME280_pressure;Samples;Min_cycle;Max_cycle;Signal;HPM_P1;HPM_P2
2021/08/19 00:00:31;;;;;;;14.85;7.70;;;;;;;23.86;74.50;99588.25;5094163;28;20028;-78
2021/08/19 00:02:56;;;;;;;14.35;7.40;;;;;;;23.66;75.64;99587.19;5102086;28;20028;-72
2021/08/19 00:05:22;;;;;;;17.55;7.18;;;;;;;23.51;75.80;99575.09;5102757;28;20047;-76
2021/08/19 00:07:47;;;;;;;14.77;7.47;;;;;;;23.83;75.38;99596.06;5094194;28;20067;-76
2021/08/19 00:10:13;;;;;;;13.50;7.43;;;;;;;23.77;75.95;99600.56;5097601;28;20297;-76
2021/08/19 00:12:39;;;;;;;14.80;7.70;;;;;;;23.64;76.49;99583.91;5088851;28;20344;-76
2021/08/19 00:15:05;;;;;;;11.05;7.88;;;;;;;23.70;76.70;99599.13;5087513;28;20032;-76
2021/08/19 00:17:31;;;;;;;12.65;7.45;;;;;;;23.70;76.02;99593.72;5093636;28;20103;-76
2021/08/19 00:19:56;;;;;;;10.98;7.75;;;;;;;23.67;76.10;99589.63;5095687;28;20043;-74
2021/08/19 00:22:22;;;;;;;12.18;8.45;;;;;;;23.73;75.23;99598.63;5090209;28;20024;-74
2021/08/19 00:24:47;;;;;;;12.13;8.18;;;;;;;23.64;76.49;99602.84;5098303;28;20210;-75
2021/08/19 00:27:12;;;;;;;13.07;8.48;;;;;;;23.58;76.64;99607.34;5090057;28;20044;-73
2021/08/19 00:29:38;;;;;;;12.30;7.95;;;;;;;23.67;75.97;99596.94;5092661;28;20285;-74
2021/08/19 00:32:05;;;;;;;11.98;8.43;;;;;;;23.57;76.80;99594.91;5080352;28;20375;-75
2021/08/19 00:34:31;;;;;;;14.40;8.25;;;;;;;23.80;73.97;99589.25;5093638;28;20100;-76
2021/08/19 00:36:56;;;;;;;15.93;8.15;;;;;;;23.59;74.37;99595.47;5098181;28;20103;-75
2021/08/19 00:39:22;;;;;;;14.95;7.97;;;;;;;23.39;75.89;99592.47;5090813;28;20097;-75
2021/08/19 00:41:47;;;;;;;10.98;7.40;;;;;;;23.32;75.80;99583.72;5090811;28;20056;-74
2021/08/19 00:44:13;;;;;;;11.20;7.50;;;;;;;23.34;74.84;99584.31;5097966;28;20048;-75
2021/08/19 00:46:39;;;;;;;11.75;7.35;;;;;;;23.05;75.90;99575.50;5086049;28;20326;-75
2021/08/19 00:49:09;;;;;;;18.25;7.88;;;;;;;22.89;76.87;99577.16;5088016;28;20043;-74
2021/08/19 00:51:48;;;;;;;13.98;7.65;;;;;;;22.82;77.00;99590.78;5096712;28;20039;-78
2021/08/19 00:54:20;;;;;;;10.40;7.15;;;;;;;22.69;77.56;99592.97;5091742;28;20036;-78
2021/08/19 00:56:46;;;;;;;16.45;7.68;;;;;;;22.63;76.86;99581.28;5076366;28;22275;-72
2021/08/19 00:59:12;;;;;;;10.45;7.28;;;;;;;22.67;76.57;99585.13;5091211;28;20020;-71
2021/08/19 01:01:38;;;;;;;13.63;8.27;;;;;;;22.77;76.22;99579.88;5089110;28;20043;-76
2021/08/19 01:04:05;;;;;;;14.57;8.02;;;;;;;22.66;76.69;99572.69;5092416;28;20036;-73
2021/08/19 01:06:31;;;;;;;13.38;7.00;;;;;;;22.68;74.98;99567.84;5069584;28;20034;-73
2021/08/19 01:08:57;;;;;;;12.40;7.05;;;;;;;22.55;75.03;99578.97;5096728;28;20059;-73
2021/08/19 01:11:22;;;;;;;10.07;6.85;;;;;;;22.57;74.28;99582.25;5068261;28;20016;-74
2021/08/19 01:13:51;;;;;;;8.30;5.72;;;;;;;22.21;74.18;99578.09;5095465;28;20279;-73
2021/08/19 01:16:20;;;;;;;11.52;6.18;;;;;;;21.96;74.17;99573.84;5093092;28;21191;-76
2021/08/19 01:18:47;;;;;;;10.93;5.55;;;;;;;21.87;74.23;99567.19;5113887;28;20066;-73
2021/08/19 01:21:14;;;;;;;10.48;5.88;;;;;;;21.76;74.40;99562.63;5103837;28;20313;-74
2021/08/19 01:23:40;;;;;;;7.22;5.32;;;;;;;21.89;72.60;99564.25;5082911;28;20040;-73
2021/08/19 01:26:08;;;;;;;8.00;5.43;;;;;;;21.98;73.41;99569.03;5084239;28;20025;-76
2021/08/19 01:28:35;;;;;;;7.80;5.38;;;;;;;21.91;72.98;99567.53;5086827;28;20036;-74
2021/08/19 01:31:01;;;;;;;11.82;5.93;;;;;;;21.92;72.70;99569.16;5089873;28;20254;-74
2021/08/19 01:33:27;;;;;;;7.45;5.55;;;;;;;22.06;72.39;99561.66;5089936;28;20019;-73
2021/08/19 01:35:53;;;;;;;9.57;4.88;;;;;;;21.99;71.93;99559.88;5082042;28;20061;-74
2021/08/19 01:38:19;;;;;;;9.93;5.10;;;;;;;22.01;71.17;99570.44;5083644;28;20249;-74
2021/08/19 01:40:44;;;;;;;9.93;5.47;;;;;;;21.71;71.11;99559.03;5070969;28;20025;-75
2021/08/19 01:43:10;;;;;;;8.93;5.00;;;;;;;21.43;71.57;99567.88;5094770;28;20028;-75
2021/08/19 01:45:36;;;;;;;10.35;5.15;;;;;;;21.30;71.39;99572.44;5097635;28;20246;-74
2021/08/19 01:48:01;;;;;;;10.00;5.18;;;;;;;21.48;71.06;99571.50;5091484;28;20032;-78
2021/08/19 01:50:26;;;;;;;9.07;5.20;;;;;;;21.11;71.65;99573.59;5090617;28;20033;-71
2021/08/19 01:52:53;;;;;;;12.15;5.78;;;;;;;20.92;73.99;99578.28;5074695;28;20026;-72
2021/08/19 01:55:18;;;;;;;12.13;5.32;;;;;;;21.05;72.59;99571.84;5111624;28;20035;-72
2021/08/19 01:57:44;;;;;;;10.73;4.97;;;;;;;21.18;72.64;99576.19;5121607;28;20221;-75
2021/08/19 02:00:10;;;;;;;12.75;5.00;;;;;;;21.19;72.24;99558.97;5105205;28;20024;-74
2021/08/19 02:02:35;;;;;;;7.93;5.00;;;;;;;21.10;72.36;99580.03;5087903;28;20222;-73
2021/08/19 02:05:01;;;;;;;11.90;5.00;;;;;;;21.09;71.65;99573.03;5078661;28;20020;-75
2021/08/19 02:07:26;;;;;;;10.93;5.28;;;;;;;21.08;72.12;99575.94;5087107;28;20036;-75
2021/08/19 02:09:52;;;;;;;11.10;4.72;;;;;;;21.21;71.45;99578.41;5095027;28;20062;-76
2021/08/19 02:12:17;;;;;;;9.52;4.47;;;;;;;21.11;72.21;99578.16;5087332;28;20329;-74
2021/08/19 02:14:43;;;;;;;10.30;5.38;;;;;;;21.19;71.53;99573.25;5096171;28;20054;-75
2021/08/19 02:17:08;;;;;;;11.60;5.35;;;;;;;21.11;71.45;99570.91;5084421;28;20238;-75
2021/08/19 02:19:34;;;;;;;7.65;4.53;;;;;;;21.14;71.08;99575.84;5090580;28;20390;-75
2021/08/19 02:21:59;;;;;;;10.35;4.45;;;;;;;21.08;70.88;99576.78;5082526;28;20041;-74
2021/08/19 02:24:24;;;;;;;7.88;4.68;;;;;;;20.98;71.10;99576.53;5085571;28;20099;-74
2021/08/19 02:26:50;;;;;;;10.95;4.90;;;;;;;21.04;70.77;99573.72;5092428;28;20376;-73
2021/08/19 02:29:15;;;;;;;7.18;4.30;;;;;;;20.92;69.91;99566.69;5086173;28;20237;-75
2021/08/19 02:31:42;;;;;;;7.30;3.90;;;;;;;21.01;69.70;99571.50;5100346;28;20217;-75
2021/08/19 02:34:08;;;;;;;7.35;3.65;;;;;;;20.96;70.10;99576.75;5086252;28;20040;-73
2021/08/19 02:36:33;;;;;;;6.07;4.22;;;;;;;20.74;70.00;99581.03;5090146;28;20179;-73
2021/08/19 02:38:59;;;;;;;10.27;4.20;;;;;;;20.67;70.23;99581.16;5091648;28;20042;-75
2021/08/19 02:41:24;;;;;;;7.43;4.28;;;;;;;20.64;70.31;99584.31;5093745;28;20066;-75
2021/08/19 02:43:50;;;;;;;8.32;4.40;;;;;;;20.52;70.57;99567.31;5085355;28;20025;-75
2021/08/19 02:46:15;;;;;;;10.30;4.25;;;;;;;20.71;69.79;99589.59;5074106;28;20518;-72
2021/08/19 02:48:41;;;;;;;8.35;4.45;;;;;;;20.76;69.38;99584.31;5088177;28;20028;-79
2021/08/19 02:51:07;;;;;;;6.20;3.83;;;;;;;20.70;68.95;99586.06;5086928;28;20238;-78
2021/08/19 02:53:33;;;;;;;9.90;4.50;;;;;;;20.65;69.46;99594.00;5089406;28;20195;-72
2021/08/19 02:55:59;;;;;;;9.85;4.65;;;;;;;20.45;69.02;99550.47;5085576;28;20044;-73
2021/08/19 02:58:24;;;;;;;10.73;4.03;;;;;;;20.79;68.60;99591.94;5094737;28;20387;-75
2021/08/19 03:00:50;;;;;;;8.00;4.28;;;;;;;20.76;68.97;99580.81;5092593;28;20050;-75
2021/08/19 03:03:15;;;;;;;7.03;3.83;;;;;;;20.91;68.62;99600.06;5066500;28;20040;-73
2021/08/19 03:05:41;;;;;;;7.53;3.95;;;;;;;20.74;68.42;99594.50;5066591;28;20059;-73
2021/08/19 03:08:06;;;;;;;8.13;4.22;;;;;;;20.75;68.64;99606.09;5087968;28;20055;-73
2021/08/19 03:10:32;;;;;;;9.50;4.50;;;;;;;20.69;69.02;99605.97;5087755;28;20024;-75
2021/08/19 03:12:57;;;;;;;12.02;4.43;;;;;;;20.70;69.59;99612.97;5099582;28;20099;-73
2021/08/19 03:15:22;;;;;;;9.43;4.20;;;;;;;20.65;69.09;99599.41;5076001;28;20257;-73
2021/08/19 03:17:48;;;;;;;10.68;4.25;;;;;;;20.55;69.25;99607.22;5098177;28;20036;-75
2021/08/19 03:20:13;;;;;;;7.57;4.68;;;;;;;20.65;69.60;99618.22;5085969;28;20024;-75
2021/08/19 03:22:39;;;;;;;6.60;4.18;;;;;;;20.55;70.14;99619.84;5067712;28;20024;-73
2021/08/19 03:25:09;;;;;;;7.68;3.75;;;;;;;20.56;69.93;99621.47;5085368;28;20035;-75
2021/08/19 03:27:34;;;;;;;11.70;4.97;;;;;;;20.76;69.27;99621.19;5085881;28;20032;-73
2021/08/19 03:30:00;;;;;;;10.27;4.10;;;;;;;20.92;68.41;99626.72;5087053;28;20037;-73
2021/08/19 03:32:25;;;;;;;7.60;4.40;;;;;;;20.88;68.51;99630.94;5087094;28;20036;-73
2021/08/19 03:34:51;;;;;;;7.10;4.03;;;;;;;20.83;68.41;99617.34;5083957;28;20341;-75
2021/08/19 03:37:16;;;;;;;9.18;4.88;;;;;;;20.77;68.71;99633.56;5087001;28;20043;-75
2021/08/19 03:39:42;;;;;;;9.48;4.43;;;;;;;20.81;68.47;99634.78;5090574;28;20334;-75
2021/08/19 03:42:08;;;;;;;8.18;4.10;;;;;;;20.77;68.48;99629.03;5090816;28;20034;-73
2021/08/19 03:44:34;;;;;;;6.00;4.13;;;;;;;20.81;68.32;99632.09;5085936;28;20048;-78
2021/08/19 03:47:00;;;;;;;10.15;4.72;;;;;;;20.94;68.20;99638.09;5089013;28;20032;-78
2021/08/19 03:49:26;;;;;;;9.20;4.43;;;;;;;21.03;67.40;99641.25;5086806;28;20578;-72
2021/08/19 03:51:51;;;;;;;7.20;4.13;;;;;;;21.03;67.46;99647.47;5091411;28;20073;-72
2021/08/19 03:54:17;;;;;;;7.47;4.45;;;;;;;20.92;67.64;99645.56;5088230;28;20036;-72
2021/08/19 03:56:42;;;;;;;12.93;4.38;;;;;;;20.98;67.68;99652.72;5089932;28;20031;-75
2021/08/19 03:59:09;;;;;;;7.85;4.15;;;;;;;21.20;66.59;99644.09;5090957;28;20813;-75
2021/08/19 04:01:35;;;;;;;8.93;4.28;;;;;;;21.03;64.60;99641.25;5086847;28;20024;-75
2021/08/19 04:04:01;;;;;;;6.40;3.80;;;;;;;21.01;65.45;99643.38;5090605;28;20037;-75
2021/08/19 04:06:27;;;;;;;9.27;4.47;;;;;;;21.15;65.33;99649.34;5088016;28;20044;-74
2021/08/19 04:08:53;;;;;;;8.52;4.13;;;;;;;21.19;64.97;99653.22;5066370;28;20061;-73
2021/08/19 04:11:18;;;;;;;10.00;3.97;;;;;;;21.39;64.17;99648.31;5067572;28;20322;-74
2021/08/19 04:13:44;;;;;;;7.75;3.65;;;;;;;21.52;63.71;99649.97;5068502;28;20021;-75
2021/08/19 04:16:09;;;;;;;8.57;3.70;;;;;;;21.60;62.94;99645.03;5077350;28;20042;-76
2021/08/19 04:18:35;;;;;;;4.93;3.30;;;;;;;21.51;62.15;99634.84;5067449;28;20245;-73
2021/08/19 04:21:02;;;;;;;8.73;4.15;;;;;;;21.49;62.25;99645.03;5069554;28;20047;-75
2021/08/19 04:23:27;;;;;;;13.50;4.25;;;;;;;21.32;62.37;99634.16;5068669;28;20094;-76
2021/08/19 04:25:53;;;;;;;10.88;4.32;;;;;;;21.16;63.13;99645.59;5068782;28;20269;-74
2021/08/19 04:28:18;;;;;;;10.38;4.05;;;;;;;21.24;63.42;99634.50;5065484;28;20045;-76
2021/08/19 04:30:43;;;;;;;8.35;3.97;;;;;;;21.54;63.48;99639.78;5066229;28;20386;-74
2021/08/19 04:33:09;;;;;;;6.22;4.43;;;;;;;21.67;63.02;99648.41;5069093;28;20044;-76
2021/08/19 04:35:35;;;;;;;12.38;3.85;;;;;;;21.88;62.92;99625.44;5067873;28;20111;-75
2021/08/19 04:38:00;;;;;;;8.70;4.13;;;;;;;22.06;63.01;99626.34;5066785;28;20029;-76
2021/08/19 04:40:26;;;;;;;9.18;3.85;;;;;;;22.08;61.54;99635.84;5067787;28;20280;-72
2021/08/19 04:42:51;;;;;;;8.95;4.38;;;;;;;22.20;61.20;99631.22;5066623;28;20088;-79
2021/08/19 04:45:17;;;;;;;9.52;3.88;;;;;;;22.29;60.43;99632.47;5066399;28;20032;-72
2021/08/19 04:47:42;;;;;;;11.38;3.92;;;;;;;22.25;60.27;99641.28;5074971;28;20028;-79
2021/08/19 04:50:08;;;;;;;8.63;4.00;;;;;;;22.33;59.87;99632.00;5068843;28;20025;-74
2021/08/19 04:52:34;;;;;;;8.10;4.38;;;;;;;22.57;59.72;99641.63;5066974;28;20065;-74
2021/08/19 04:54:59;;;;;;;10.85;4.47;;;;;;;22.53;60.05;99643.16;5069836;28;20032;-74
2021/08/19 04:57:24;;;;;;;9.07;4.32;;;;;;;22.54;60.33;99652.91;5064217;28;20199;-75
2021/08/19 04:59:50;;;;;;;7.57;4.05;;;;;;;22.69;59.35;99638.84;5068643;28;20196;-74
2021/08/19 05:02:15;;;;;;;13.15;4.80;;;;;;;22.79;58.83;99652.53;5068083;28;20084;-75
2021/08/19 05:04:41;;;;;;;8.20;4.18;;;;;;;23.02;58.62;99654.31;5066078;28;20025;-76
2021/08/19 05:07:06;;;;;;;10.70;4.07;;;;;;;23.18;57.18;99656.19;5070329;28;20048;-76
2021/08/19 05:09:32;;;;;;;7.43;3.97;;;;;;;23.22;57.39;99646.53;5085502;28;20044;-76
2021/08/19 05:11:57;;;;;;;8.00;4.55;;;;;;;23.43;56.84;99645.78;5088903;28;20222;-74
2021/08/19 05:14:23;;;;;;;10.50;3.67;;;;;;;23.53;56.71;99647.78;5088598;28;20322;-76
2021/08/19 05:16:49;;;;;;;9.18;3.90;;;;;;;23.64;56.03;99654.19;5086958;28;20032;-76
2021/08/19 05:19:14;;;;;;;7.90;3.88;;;;;;;23.81;53.93;99655.78;5085532;28;20036;-74
2021/08/19 05:21:40;;;;;;;6.32;3.42;;;;;;;23.92;54.10;99636.97;5072615;28;20048;-76
2021/08/19 05:24:05;;;;;;;8.00;3.78;;;;;;;23.91;53.42;99651.56;5084812;28;20038;-74
2021/08/19 05:26:31;;;;;;;8.43;3.65;;;;;;;23.94;52.29;99646.50;5085838;28;20032;-76
2021/08/19 05:28:57;;;;;;;8.35;3.58;;;;;;;24.24;51.87;99648.75;5086217;28;20047;-76
2021/08/19 05:31:22;;;;;;;9.73;3.42;;;;;;;24.44;50.75;99643.59;5083625;28;20095;-72
2021/08/19 05:33:48;;;;;;;5.93;2.92;;;;;;;24.48;50.12;99630.38;5068756;28;20028;-72
2021/08/19 05:36:15;;;;;;;8.25;3.10;;;;;;;24.62;49.76;99647.00;5086857;28;20063;-72
2021/08/19 05:38:41;;;;;;;4.90;2.78;;;;;;;24.80;48.97;99643.94;5087382;28;20116;-72
2021/08/19 05:41:07;;;;;;;5.78;2.70;;;;;;;24.89;48.43;99650.50;5086590;28;20035;-72
2021/08/19 05:43:32;;;;;;;4.20;3.10;;;;;;;25.15;48.12;99651.59;5088473;28;20225;-77
2021/08/19 05:45:58;;;;;;;6.78;3.03;;;;;;;25.50;46.80;99651.00;5069564;28;20318;-76
2021/08/19 05:48:24;;;;;;;7.68;2.50;;;;;;;25.86;44.81;99645.81;5084905;28;20103;-76
2021/08/19 05:50:49;;;;;;;7.07;2.47;;;;;;;25.39;45.28;99657.44;5065656;28;20043;-74
2021/08/19 05:53:15;;;;;;;5.57;3.22;;;;;;;25.68;44.92;99647.88;5063951;28;20044;-74
2021/08/19 05:55:40;;;;;;;6.38;2.75;;;;;;;25.95;43.90;99649.63;5087392;28;20078;-76
2021/08/19 05:58:06;;;;;;;9.50;3.20;;;;;;;26.21;43.49;99643.25;5082138;28;20036;-74
2021/08/19 06:00:31;;;;;;;9.60;3.22;;;;;;;26.56;42.91;99649.88;5081888;28;20226;-76
2021/08/19 06:02:57;;;;;;;4.03;2.63;;;;;;;26.75;41.65;99645.56;5082094;28;20314;-76
2021/08/19 06:05:22;;;;;;;4.50;2.63;;;;;;;26.53;41.01;99634.13;5082533;28;20268;-74
2021/08/19 06:07:48;;;;;;;4.28;2.60;;;;;;;26.50;41.38;99649.06;5099272;28;20071;-74
2021/08/19 06:10:13;;;;;;;5.60;3.28;;;;;;;26.40;40.88;99655.28;5087384;28;20065;-74
2021/08/19 06:12:39;;;;;;;9.05;2.70;;;;;;;25.84;42.41;99648.78;5081718;28;20314;-76
2021/08/19 06:15:07;;;;;;;6.47;2.80;;;;;;;26.47;41.82;99641.44;5082014;28;20024;-76
2021/08/19 06:17:33;;;;;;;6.93;2.60;;;;;;;26.33;41.90;99643.03;5083077;28;20356;-74
2021/08/19 06:19:59;;;;;;;4.57;2.72;;;;;;;26.68;41.79;99645.81;5071600;28;20070;-79
2021/08/19 06:22:25;;;;;;;7.82;2.63;;;;;;;27.23;39.79;99638.81;5082183;28;20039;-80
2021/08/19 06:24:50;;;;;;;5.65;2.50;;;;;;;27.16;39.47;99660.03;5074481;28;20036;-79
2021/08/19 06:27:16;;;;;;;7.05;3.03;;;;;;;26.99;39.27;99652.13;5087091;28;20040;-72
2021/08/19 06:29:41;;;;;;;8.35;2.63;;;;;;;26.97;39.65;99648.84;5075870;28;20033;-78
2021/08/19 06:32:07;;;;;;;5.68;2.85;;;;;;;27.44;39.15;99661.34;5081930;28;20114;-74
2021/08/19 06:34:34;;;;;;;4.82;2.47;;;;;;;27.89;37.90;99651.44;5065353;28;20056;-74
2021/08/19 06:37:00;;;;;;;4.47;2.55;;;;;;;27.80;37.08;99644.97;5084832;28;20252;-76
2021/08/19 06:39:25;;;;;;;5.38;2.55;;;;;;;27.81;36.65;99635.69;5087196;28;20079;-76
2021/08/19 06:41:51;;;;;;;7.10;2.88;;;;;;;27.80;36.52;99632.16;5083892;28;20029;-75
2021/08/19 06:44:16;;;;;;;7.30;2.50;;;;;;;27.77;36.15;99645.50;5083913;28;20025;-75
2021/08/19 06:46:41;;;;;;;4.82;2.47;;;;;;;27.82;36.39;99648.22;5070127;28;20202;-75
2021/08/19 06:49:07;;;;;;;3.80;2.55;;;;;;;28.00;36.25;99634.00;5085145;28;20263;-74
2021/08/19 06:51:32;;;;;;;6.68;2.70;;;;;;;27.74;36.42;99641.44;5083422;28;20027;-74
2021/08/19 06:53:58;;;;;;;6.88;2.40;;;;;;;28.03;35.94;99640.78;5086542;28;20115;-76
2021/08/19 06:56:23;;;;;;;7.60;2.95;;;;;;;28.25;35.68;99646.72;5085721;28;20039;-76
2021/08/19 06:58:49;;;;;;;6.93;2.28;;;;;;;28.25;35.07;99635.81;5070628;28;20322;-74
2021/08/19 07:01:15;;;;;;;4.95;2.63;;;;;;;28.10;35.43;99633.97;5068009;28;20726;-75
2021/08/19 07:03:40;;;;;;;6.25;2.75;;;;;;;27.84;35.65;99613.38;5086148;28;20020;-76
2021/08/19 07:06:12;;;;;;;9.20;3.15;;;;;;;28.41;35.33;99648.25;5089165;28;20048;-74
2021/08/19 07:08:39;;;;;;;4.13;2.55;;;;;;;28.32;35.79;99654.56;5085373;28;20039;-78
2021/08/19 07:11:04;;;;;;;6.22;2.85;;;;;;;28.71;34.45;99654.59;5086278;28;20028;-73
2021/08/19 07:13:30;;;;;;;5.78;2.85;;;;;;;29.13;33.52;99637.66;5089154;28;20033;-72
2021/08/19 07:15:56;;;;;;;5.50;2.70;;;;;;;29.39;33.30;99643.72;5088187;28;20956;-72
2021/08/19 07:18:21;;;;;;;4.13;2.65;;;;;;;29.48;32.39;99645.56;5090196;28;20318;-74
2021/08/19 07:20:47;;;;;;;9.00;2.75;;;;;;;29.52;33.48;99635.69;5088699;28;20040;-76
2021/08/19 07:23:12;;;;;;;4.75;2.45;;;;;;;29.65;32.22;99647.81;5073086;28;20051;-76
2021/08/19 07:25:38;;;;;;;6.75;2.42;;;;;;;29.47;32.07;99646.66;5088642;28;20040;-76
2021/08/19 07:28:04;;;;;;;5.15;2.53;;;;;;;29.62;33.16;99656.59;5088990;28;20057;-74
2021/08/19 07:30:29;;;;;;;8.85;3.10;;;;;;;29.95;32.33;99648.56;5090559;28;20563;-77
2021/08/19 07:32:55;;;;;;;5.50;2.40;;;;;;;29.82;31.80;99648.16;5087914;28;20060;-76
2021/08/19 07:35:21;;;;;;;6.95;2.80;;;;;;;29.86;30.34;99654.66;5090198;28;20043;-74
2021/08/19 07:37:49;;;;;;;6.20;2.55;;;;;;;30.14;30.09;99641.25;5070803;28;20036;-76
2021/08/19 07:40:19;;;;;;;4.15;2.33;;;;;;;29.86;30.58;99640.22;5087444;28;20028;-76
2021/08/19 07:42:45;;;;;;;5.55;2.42;;;;;;;30.69;29.95;99653.34;5088374;28;20217;-76
2021/08/19 07:45:12;;;;;;;5.45;2.40;;;;;;;30.72;29.33;99663.69;5078685;28;20028;-75
2021/08/19 07:47:38;;;;;;;6.68;3.03;;;;;;;30.35;28.15;99648.09;5088542;28;20055;-75
2021/08/19 07:50:04;;;;;;;6.80;2.67;;;;;;;29.82;28.85;99656.34;5087182;28;20036;-75
2021/08/19 07:52:30;;;;;;;6.90;2.53;;;;;;;30.33;29.49;99663.16;5071526;28;20047;-79
2021/08/19 07:54:56;;;;;;;9.82;2.78;;;;;;;30.57;28.82;99663.06;5070708;28;20028;-73
2021/08/19 07:57:21;;;;;;;6.22;3.25;;;;;;;30.36;28.73;99668.03;5088941;28;20028;-73
2021/08/19 07:59:47;;;;;;;3.67;2.25;;;;;;;30.09;28.54;99663.97;5088842;28;20039;-78
2021/08/19 08:02:12;;;;;;;5.43;2.20;;;;;;;29.91;28.90;99659.25;5075344;28;20025;-79
2021/08/19 08:04:37;;;;;;;3.30;2.00;;;;;;;30.34;29.23;99670.22;5072109;28;20027;-75
2021/08/19 08:07:03;;;;;;;4.53;2.55;;;;;;;30.38;28.21;99666.63;5085433;28;20048;-75
2021/08/19 08:09:29;;;;;;;5.65;2.78;;;;;;;30.44;28.09;99664.63;5088453;28;20036;-74
2021/08/19 08:11:55;;;;;;;7.18;2.60;;;;;;;30.76;28.32;99667.44;5090129;28;20409;-74
2021/08/19 08:14:20;;;;;;;4.07;2.47;;;;;;;31.30;27.98;99652.38;5087856;28;20041;-75
2021/08/19 08:16:46;;;;;;;4.88;2.30;;;;;;;31.77;26.42;99653.16;5088628;28;20019;-76
2021/08/19 08:19:11;;;;;;;4.05;2.40;;;;;;;31.99;26.20;99647.78;5089654;28;20240;-75
2021/08/19 08:21:38;;;;;;;4.00;2.15;;;;;;;31.87;25.79;99652.97;5087420;28;20020;-75
2021/08/19 08:24:05;;;;;;;3.55;1.92;;;;;;;31.67;25.99;99650.59;5066778;28;20055;-74
2021/08/19 08:26:30;;;;;;;6.25;2.28;;;;;;;32.43;24.81;99640.84;5087339;28;20035;-75
2021/08/19 08:28:57;;;;;;;3.83;2.38;;;;;;;32.46;26.14;99637.50;5088996;28;20024;-75
2021/08/19 08:31:23;;;;;;;3.97;2.15;;;;;;;32.42;25.67;99647.44;5088595;28;20046;-74
2021/08/19 08:33:49;;;;;;;5.10;2.17;;;;;;;32.45;25.12;99646.84;5071554;28;20072;-74
2021/08/19 08:36:14;;;;;;;4.18;2.40;;;;;;;31.96;25.20;99645.66;5069332;28;20020;-74
2021/08/19 08:38:40;;;;;;;5.95;2.40;;;;;;;32.16;25.43;99633.44;5088709;28;20082;-78
2021/08/19 08:41:06;;;;;;;3.60;2.33;;;;;;;31.85;24.89;99640.69;5087041;28;20032;-72
2021/08/19 08:43:34;;;;;;;4.88;2.25;;;;;;;31.80;25.17;99651.75;5085700;28;20024;-72
2021/08/19 08:46:01;;;;;;;4.20;2.45;;;;;;;32.48;25.40;99635.25;5071113;28;20024;-78
2021/08/19 08:48:27;;;;;;;3.47;2.28;;;;;;;32.22;25.25;99642.38;5087577;28;20313;-78
2021/08/19 08:50:56;;;;;;;5.68;2.38;;;;;;;32.36;24.74;99640.47;5088971;28;20036;-76
2021/08/19 08:53:22;;;;;;;3.95;2.35;;;;;;;32.30;24.72;99642.50;5085550;28;20040;-75
2021/08/19 08:55:48;;;;;;;8.57;2.92;;;;;;;32.41;23.57;99639.53;5088305;28;20024;-75
2021/08/19 08:58:14;;;;;;;3.72;2.50;;;;;;;32.44;24.26;99623.28;5068831;28;20051;-76
2021/08/19 09:00:41;;;;;;;4.30;2.55;;;;;;;32.70;23.49;99635.28;5089075;28;20041;-75
2021/08/19 09:03:08;;;;;;;5.15;2.35;;;;;;;32.78;24.40;99632.94;5083440;28;20087;-75
2021/08/19 09:05:42;;;;;;;8.55;2.70;;;;;;;32.95;23.93;99627.56;5069515;28;20051;-76
2021/08/19 09:08:14;;;;;;;4.70;2.55;;;;;;;33.32;23.35;99612.66;5088038;28;20051;-75
2021/08/19 09:10:39;;;;;;;5.43;2.70;;;;;;;33.68;22.32;99617.16;5088775;28;20040;-75
2021/08/19 09:13:13;;;;;;;6.95;2.78;;;;;;;33.55;23.78;99610.66;5085439;28;20199;-76
2021/08/19 09:15:39;;;;;;;8.30;2.55;;;;;;;32.82;23.39;99614.72;5084823;28;20271;-75
2021/08/19 09:18:05;;;;;;;5.50;2.63;;;;;;;33.03;23.03;99624.06;5089038;28;20039;-76
2021/08/19 09:20:37;;;;;;;4.30;2.67;;;;;;;32.92;23.75;99619.97;5084630;28;20032;-74
2021/08/19 09:23:21;;;;;;;4.10;2.17;;;;;;;32.87;24.49;99631.06;5090752;28;20746;-75
2021/08/19 09:25:47;;;;;;;4.28;2.25;;;;;;;32.15;24.11;99615.41;5086107;28;20125;-74
2021/08/19 09:28:28;;;;;;;4.97;2.70;;;;;;;32.15;23.51;99629.09;5086179;28;20123;-72
2021/08/19 09:30:57;;;;;;;4.38;2.50;;;;;;;32.37;23.78;99628.38;5071673;28;20028;-73
2021/08/19 09:33:27;;;;;;;4.68;2.22;;;;;;;32.69;23.51;99617.19;5087826;28;20070;-72
2021/08/19 09:35:55;;;;;;;6.45;2.63;;;;;;;32.68;22.79;99617.50;5085625;28;20361;-78
2021/08/19 09:38:24;;;;;;;4.35;2.60;;;;;;;32.24;24.00;99623.72;5087878;28;20317;-78
2021/08/19 09:41:11;;;;;;;5.57;2.55;;;;;;;31.93;23.99;99618.88;5086685;28;20036;-76
2021/08/19 09:43:50;;;;;;;3.20;2.60;;;;;;;32.03;25.40;99620.59;5085975;28;20032;-76
2021/08/19 09:46:30;;;;;;;5.38;2.22;;;;;;;31.74;24.01;99609.97;5086835;28;20055;-75
2021/08/19 09:48:56;;;;;;;4.88;2.83;;;;;;;31.35;24.66;99614.00;5065201;28;20037;-75
2021/08/19 09:51:24;;;;;;;4.45;2.55;;;;;;;31.06;25.03;99597.78;5084230;28;20195;-74
2021/08/19 09:53:53;;;;;;;5.18;2.75;;;;;;;31.21;26.05;99607.69;5087925;28;20066;-74
2021/08/19 09:56:27;;;;;;;5.25;2.90;;;;;;;30.97;26.08;99604.25;5069039;28;20035;-74
2021/08/19 09:58:52;;;;;;;9.35;3.08;;;;;;;31.29;26.22;99603.44;5085127;28;20028;-76
2021/08/19 10:01:18;;;;;;;7.32;2.85;;;;;;;31.28;25.71;99599.09;5087228;28;20036;-75
2021/08/19 10:03:44;;;;;;;4.45;2.75;;;;;;;31.21;26.08;99596.75;5086035;28;20091;-75
2021/08/19 10:06:10;;;;;;;5.85;3.03;;;;;;;31.33;27.43;99582.56;5067277;28;20056;-74
2021/08/19 10:08:36;;;;;;;7.05;2.78;;;;;;;31.10;25.87;99578.84;5087120;28;20047;-74
2021/08/19 10:11:03;;;;;;;4.78;2.75;;;;;;;30.42;28.03;99599.34;5084778;28;20292;-74
2021/08/19 10:13:29;;;;;;;7.97;3.33;;;;;;;29.75;27.90;99597.78;5086493;28;20033;-75
2021/08/19 10:15:55;;;;;;;4.47;2.72;;;;;;;29.19;29.04;99588.28;5088297;28;20083;-78
2021/08/19 10:18:28;;;;;;;7.60;3.33;;;;;;;29.04;29.84;99582.94;5085776;28;20112;-72
2021/08/19 10:20:59;;;;;;;5.05;2.90;;;;;;;29.21;31.25;99582.53;5086677;28;20259;-72
2021/08/19 10:23:25;;;;;;;6.47;3.38;;;;;;;29.06;30.45;99583.47;5069008;28;20024;-73
2021/08/19 10:26:07;;;;;;;6.70;3.25;;;;;;;28.77;32.41;99588.06;5087331;28;20039;-77
2021/08/19 10:28:54;;;;;;;5.10;3.10;;;;;;;28.70;30.58;99591.13;5087489;28;20036;-74
2021/08/19 10:31:35;;;;;;;8.63;3.15;;;;;;;28.73;30.51;99587.00;5065877;28;20095;-76
2021/08/19 10:34:00;;;;;;;6.40;2.83;;;;;;;28.84;30.59;99583.13;5087941;28;20264;-73
2021/08/19 10:36:29;;;;;;;4.70;2.80;;;;;;;28.73;29.99;99585.09;5085035;28;20105;-74
2021/08/19 10:39:17;;;;;;;6.47;2.95;;;;;;;28.71;29.89;99584.56;5087670;28;20071;-74
2021/08/19 10:41:43;;;;;;;5.00;2.85;;;;;;;28.79;29.51;99583.97;5076237;28;20049;-76
2021/08/19 10:44:10;;;;;;;10.20;3.15;;;;;;;28.86;30.36;99581.75;5086447;28;20039;-75
2021/08/19 10:46:41;;;;;;;5.25;3.08;;;;;;;28.78;29.67;99573.34;5085716;28;20024;-74
2021/08/19 10:49:07;;;;;;;4.97;3.10;;;;;;;29.11;30.18;99574.44;5073111;28;20057;-74
2021/08/19 10:51:33;;;;;;;5.05;2.72;;;;;;;29.22;30.00;99574.06;5088933;28;20029;-74
2021/08/19 10:53:59;;;;;;;4.22;3.17;;;;;;;29.19;29.72;99571.91;5092764;28;20312;-76
2021/08/19 10:56:43;;;;;;;6.47;3.15;;;;;;;29.57;28.89;99569.34;5091166;28;20329;-75
2021/08/19 10:59:31;;;;;;;9.15;3.45;;;;;;;29.51;29.58;99571.31;5071342;28;20040;-74
2021/08/19 11:01:59;;;;;;;5.75;3.03;;;;;;;29.44;30.65;99564.59;5090501;28;20073;-79
2021/08/19 11:04:46;;;;;;;4.13;2.95;;;;;;;29.44;31.32;99551.75;5089517;28;20032;-72
2021/08/19 11:07:42;;;;;;;6.13;2.90;;;;;;;29.40;30.78;99563.50;5090842;28;20388;-78
2021/08/19 11:10:08;;;;;;;7.15;3.05;;;;;;;29.15;31.10;99564.59;5087583;28;20063;-72
2021/08/19 11:12:36;;;;;;;5.13;3.00;;;;;;;29.08;31.07;99566.81;5091674;28;20040;-73
2021/08/19 11:15:02;;;;;;;5.75;2.72;;;;;;;28.99;30.95;99555.75;5089592;28;20036;-75
2021/08/19 11:17:28;;;;;;;4.75;2.65;;;;;;;28.86;32.24;99543.59;5086614;28;20330;-75
2021/08/19 11:19:53;;;;;;;7.60;2.60;;;;;;;29.02;30.76;99549.72;5092879;28;20035;-76
2021/08/19 11:22:20;;;;;;;4.88;2.78;;;;;;;29.16;30.27;99553.41;5087351;28;20341;-75
2021/08/19 11:24:46;;;;;;;7.78;3.38;;;;;;;28.86;30.19;99545.50;5088805;28;20039;-74
2021/08/19 11:27:11;;;;;;;6.88;3.30;;;;;;;28.80;32.50;99543.91;5090789;28;20340;-75
2021/08/19 11:29:42;;;;;;;6.85;2.90;;;;;;;28.67;30.73;99529.03;5089144;28;20024;-74